createdAt,value
2022-07-28T00:02:25.560Z,11.80
2022-07-28T00:04:52.622Z,11.80
2022-07-28T00:07:20.595Z,11.80
2022-07-28T00:09:47.583Z,11.80
2022-07-28T00:12:14.906Z,11.70
2022-07-28T00:14:41.862Z,11.70
2022-07-28T00:17:08.910Z,11.70
2022-07-28T00:19:35.831Z,11.60
2022-07-28T00:22:03.219Z,11.60
2022-07-28T00:24:31.877Z,11.50
2022-07-28T00:26:59.001Z,11.60
2022-07-28T00:29:42.581Z,11.50
2022-07-28T00:32:13.433Z,11.60
2022-07-28T00:34:40.515Z,11.60
2022-07-28T00:37:14.463Z,11.60
2022-07-28T00:39:42.282Z,11.60
2022-07-28T00:42:09.326Z,11.50
2022-07-28T00:44:39.201Z,11.50
2022-07-28T00:47:06.365Z,11.50
2022-07-28T00:49:33.449Z,11.50
2022-07-28T00:52:01.063Z,11.40
2022-07-28T00:54:28.073Z,11.40
2022-07-28T00:56:55.045Z,11.40
2022-07-28T00:59:21.988Z,11.40
2022-07-28T01:01:49.302Z,11.30
2022-07-28T01:04:16.885Z,11.30
2022-07-28T01:07:11.753Z,11.40
2022-07-28T01:10:07.495Z,11.30
2022-07-28T01:12:55.471Z,11.30
2022-07-28T01:15:36.660Z,11.30
2022-07-28T01:18:20.498Z,11.20
2022-07-28T01:20:52.705Z,11.20
2022-07-28T01:23:31.906Z,11.10
2022-07-28T01:26:21.150Z,11.00
2022-07-28T01:29:16.077Z,11.10
2022-07-28T01:32:12.355Z,11.00
2022-07-28T01:34:59.005Z,11.00
2022-07-28T01:37:29.191Z,11.10
2022-07-28T01:40:01.654Z,11.10
2022-07-28T01:42:37.705Z,11.00
2022-07-28T01:45:06.830Z,11.10
2022-07-28T01:47:35.386Z,11.00
2022-07-28T01:50:06.697Z,11.00
2022-07-28T01:52:37.245Z,11.00
2022-07-28T01:55:05.347Z,11.00
2022-07-28T01:57:33.994Z,11.00
2022-07-28T02:00:02.120Z,11.10
2022-07-28T02:02:31.175Z,11.10
2022-07-28T02:05:00.303Z,11.20
2022-07-28T02:07:28.677Z,11.20
2022-07-28T02:09:57.555Z,11.30
2022-07-28T02:12:26.194Z,11.30
2022-07-28T02:14:55.442Z,11.30
2022-07-28T02:17:27.958Z,11.30
2022-07-28T02:19:57.086Z,11.40
2022-07-28T02:22:26.438Z,11.30
2022-07-28T02:24:55.480Z,11.30
2022-07-28T02:27:38.904Z,11.30
2022-07-28T02:30:12.986Z,11.30
2022-07-28T02:32:53.959Z,11.30
2022-07-28T02:35:46.170Z,11.30
2022-07-28T02:38:30.986Z,11.30
2022-07-28T02:41:08.538Z,11.30
2022-07-28T02:43:49.350Z,11.30
2022-07-28T02:46:22.147Z,11.30
2022-07-28T02:48:54.233Z,11.30
2022-07-28T02:51:24.978Z,11.30
2022-07-28T02:53:53.685Z,11.30
2022-07-28T02:56:22.099Z,11.30
2022-07-28T02:58:50.292Z,11.30
2022-07-28T03:01:21.190Z,11.30
2022-07-28T03:03:49.506Z,11.30
2022-07-28T03:06:18.077Z,11.30
2022-07-28T03:08:45.236Z,11.30
2022-07-28T03:11:14.701Z,11.30
2022-07-28T03:13:41.702Z,11.30
2022-07-28T03:16:09.521Z,11.30
2022-07-28T03:18:36.444Z,11.30
2022-07-28T03:21:03.474Z,11.20
2022-07-28T03:23:50.483Z,11.20
2022-07-28T03:26:35.943Z,11.30
2022-07-28T03:29:03.981Z,11.30
2022-07-28T03:31:33.903Z,11.20
2022-07-28T03:34:01.085Z,11.20
2022-07-28T03:36:36.446Z,11.20
2022-07-28T03:39:06.423Z,11.20
2022-07-28T03:41:34.496Z,11.30
2022-07-28T03:44:03.069Z,11.20
2022-07-28T03:46:30.220Z,11.30
2022-07-28T03:48:58.453Z,11.30
2022-07-28T03:51:28.351Z,11.30
2022-07-28T03:53:55.417Z,11.20
2022-07-28T03:56:22.426Z,11.30
2022-07-28T03:58:49.572Z,11.20
2022-07-28T04:01:17.123Z,11.20
2022-07-28T04:03:44.749Z,11.20
2022-07-28T04:06:15.440Z,11.20
2022-07-28T04:08:43.756Z,11.30
2022-07-28T04:11:10.911Z,11.30
2022-07-28T04:13:38.102Z,11.30
2022-07-28T04:16:07.102Z,11.40
2022-07-28T04:18:34.461Z,11.30
2022-07-28T04:21:01.472Z,11.30
2022-07-28T04:23:28.571Z,11.40
2022-07-28T04:25:55.549Z,11.40
2022-07-28T04:28:22.722Z,11.40
2022-07-28T04:30:50.065Z,11.50
2022-07-28T04:33:20.301Z,11.50
2022-07-28T04:35:47.685Z,11.60
2022-07-28T04:38:17.239Z,11.60
2022-07-28T04:40:44.176Z,11.70
2022-07-28T04:43:11.608Z,11.70
2022-07-28T04:45:38.793Z,11.70
2022-07-28T04:48:14.537Z,11.70
2022-07-28T04:50:45.597Z,11.70
2022-07-28T04:53:13.273Z,11.70
2022-07-28T04:55:40.401Z,11.70
2022-07-28T04:58:09.451Z,11.70
2022-07-28T05:00:36.510Z,11.70
2022-07-28T05:03:04.348Z,11.70
2022-07-28T05:05:31.579Z,11.80
2022-07-28T05:07:58.573Z,11.80
2022-07-28T05:10:25.722Z,11.80
2022-07-28T05:12:54.584Z,11.80
2022-07-28T05:15:22.849Z,11.80
2022-07-28T05:17:49.997Z,11.80
2022-07-28T05:20:17.573Z,11.80
2022-07-28T05:22:46.568Z,11.90
2022-07-28T05:25:15.148Z,11.90
2022-07-28T05:27:42.137Z,11.90
2022-07-28T05:30:10.206Z,12.00
2022-07-28T05:32:37.858Z,12.00
2022-07-28T05:35:05.446Z,12.00
2022-07-28T05:37:36.184Z,12.00
2022-07-28T05:40:13.965Z,12.10
2022-07-28T05:42:42.695Z,12.10
2022-07-28T05:45:15.995Z,12.20
2022-07-28T05:47:52.862Z,12.10
2022-07-28T05:50:22.241Z,12.20
2022-07-28T05:52:51.363Z,12.30
2022-07-28T05:55:19.025Z,12.30
2022-07-28T05:57:46.140Z,12.40
2022-07-28T06:00:18.729Z,12.50
2022-07-28T06:02:47.520Z,12.50
2022-07-28T06:05:17.104Z,12.60
2022-07-28T06:07:45.438Z,12.70
2022-07-28T06:10:17.257Z,12.70
2022-07-28T06:12:46.360Z,12.80
2022-07-28T06:15:19.278Z,12.80
2022-07-28T06:17:46.211Z,12.90
2022-07-28T06:20:14.065Z,12.90
2022-07-28T06:22:45.237Z,13.00
2022-07-28T06:25:17.467Z,13.00
2022-07-28T06:27:49.022Z,13.00
2022-07-28T06:30:17.267Z,13.10
2022-07-28T06:32:44.777Z,13.30
2022-07-28T06:35:14.850Z,13.40
2022-07-28T06:37:42.078Z,13.50
2022-07-28T06:40:11.867Z,13.60
2022-07-28T06:42:39.941Z,13.70
2022-07-28T06:45:07.708Z,13.70
2022-07-28T06:47:34.779Z,13.70
2022-07-28T06:50:01.974Z,13.90
2022-07-28T06:52:29.090Z,13.90
2022-07-28T06:54:58.244Z,13.90
2022-07-28T06:57:33.379Z,13.90
2022-07-28T07:00:03.358Z,13.90
2022-07-28T07:02:30.359Z,14.10
2022-07-28T07:04:57.405Z,14.10
2022-07-28T07:07:25.190Z,14.20
2022-07-28T07:09:52.380Z,14.20
2022-07-28T07:12:19.352Z,14.30
2022-07-28T07:14:46.316Z,14.30
2022-07-28T07:17:13.307Z,14.40
2022-07-28T07:19:40.284Z,14.60
2022-07-28T07:22:07.234Z,14.70
2022-07-28T07:24:34.462Z,14.80
2022-07-28T07:27:01.516Z,15.00
2022-07-28T07:29:30.391Z,15.10
2022-07-28T07:31:58.760Z,15.10
2022-07-28T07:34:26.033Z,15.10
2022-07-28T07:36:53.018Z,15.20
2022-07-28T07:39:19.951Z,15.20
2022-07-28T07:41:46.938Z,15.20
2022-07-28T07:44:14.512Z,15.20
2022-07-28T07:46:41.782Z,15.20
2022-07-28T07:49:08.872Z,15.20
2022-07-28T07:51:35.863Z,15.30
2022-07-28T07:54:02.916Z,15.40
2022-07-28T07:56:29.889Z,15.50
2022-07-28T07:58:58.046Z,15.50
2022-07-28T08:01:25.785Z,15.60
2022-07-28T08:03:53.777Z,15.70
2022-07-28T08:06:26.624Z,15.80
2022-07-28T08:08:55.091Z,15.80
2022-07-28T08:11:22.113Z,15.90
2022-07-28T08:13:49.149Z,16.00
2022-07-28T08:16:16.212Z,16.20
2022-07-28T08:18:44.891Z,16.40
2022-07-28T08:21:13.184Z,16.40
2022-07-28T08:23:40.348Z,16.50
2022-07-28T08:26:08.052Z,16.50
2022-07-28T08:28:35.126Z,16.70
2022-07-28T08:31:02.196Z,16.80
2022-07-28T08:33:30.165Z,16.80
2022-07-28T08:35:57.719Z,16.90
2022-07-28T08:38:24.752Z,17.00
2022-07-28T08:40:56.785Z,16.90
2022-07-28T08:43:34.048Z,16.80
2022-07-28T08:46:02.837Z,16.80
2022-07-28T08:48:35.142Z,16.90
2022-07-28T08:51:11.680Z,17.20
2022-07-28T08:53:40.779Z,17.20
2022-07-28T08:56:16.861Z,17.10
2022-07-28T08:58:44.138Z,16.90
2022-07-28T09:01:11.313Z,16.80
2022-07-28T09:03:39.655Z,16.80
2022-07-28T09:06:07.869Z,16.70
2022-07-28T09:08:35.012Z,16.60
2022-07-28T09:11:02.219Z,16.50
2022-07-28T09:13:29.302Z,16.40
2022-07-28T09:15:56.573Z,16.20
2022-07-28T09:18:23.571Z,16.20
2022-07-28T09:20:50.529Z,16.30
2022-07-28T09:23:43.004Z,16.40
2022-07-28T09:26:12.348Z,16.40
2022-07-28T09:28:54.401Z,16.40
2022-07-28T09:31:23.813Z,16.40
2022-07-28T09:34:06.320Z,16.60
2022-07-28T09:36:41.532Z,16.60
2022-07-28T09:39:08.816Z,16.60
2022-07-28T09:41:49.894Z,16.60
2022-07-28T09:44:21.765Z,16.40
2022-07-28T09:46:49.301Z,16.50
2022-07-28T09:49:16.489Z,16.50
2022-07-28T09:51:58.670Z,16.50
2022-07-28T09:54:25.817Z,16.50
2022-07-28T09:56:52.978Z,16.70
2022-07-28T09:59:20.439Z,16.80
2022-07-28T10:02:05.671Z,16.70
2022-07-28T10:04:38.052Z,16.90
2022-07-28T10:07:17.137Z,17.00
2022-07-28T10:09:55.186Z,17.10
2022-07-28T10:12:33.017Z,17.20
2022-07-28T10:15:37.524Z,17.20
2022-07-28T10:18:06.143Z,17.40
2022-07-28T10:20:34.247Z,17.80
2022-07-28T10:23:08.907Z,18.10
2022-07-28T10:25:37.851Z,17.90
2022-07-28T10:28:05.935Z,18.00
2022-07-28T10:30:40.040Z,18.00
2022-07-28T10:33:15.192Z,18.10
2022-07-28T10:35:46.856Z,18.10
2022-07-28T10:38:24.045Z,18.30
2022-07-28T10:40:53.173Z,18.20
2022-07-28T10:43:20.910Z,18.20
2022-07-28T10:46:06.873Z,18.10
2022-07-28T10:48:38.512Z,18.00
2022-07-28T10:51:06.104Z,18.00
2022-07-28T10:53:37.222Z,18.00
2022-07-28T10:56:21.701Z,18.00
2022-07-28T10:59:30.311Z,17.70
2022-07-28T11:01:57.545Z,17.60
2022-07-28T11:04:46.967Z,17.70
2022-07-28T11:07:16.990Z,17.70
2022-07-28T11:09:47.471Z,17.70
2022-07-28T11:12:16.072Z,17.70
2022-07-28T11:14:43.904Z,17.70
2022-07-28T11:17:13.722Z,17.70
2022-07-28T11:20:07.021Z,17.90
2022-07-28T11:22:37.914Z,18.60
2022-07-28T11:25:18.115Z,19.20
2022-07-28T11:27:50.688Z,19.50
2022-07-28T11:30:33.540Z,19.90
2022-07-28T11:33:02.066Z,19.60
2022-07-28T11:35:53.307Z,19.40
2022-07-28T11:38:20.497Z,19.40
2022-07-28T11:40:52.712Z,19.70
2022-07-28T11:43:37.130Z,19.80
2022-07-28T11:46:10.421Z,19.80
2022-07-28T11:48:40.534Z,19.60
2022-07-28T11:51:07.617Z,19.40
2022-07-28T11:53:55.618Z,19.40
2022-07-28T11:56:36.198Z,19.50
2022-07-28T11:59:08.101Z,19.40
2022-07-28T12:01:36.843Z,19.20
2022-07-28T12:04:18.999Z,19.10
2022-07-28T12:06:52.868Z,19.10
2022-07-28T12:09:38.412Z,19.20
2022-07-28T12:12:09.451Z,19.30
2022-07-28T12:14:40.597Z,19.50
2022-07-28T12:17:07.699Z,19.50
2022-07-28T12:19:34.727Z,19.30
2022-07-28T12:22:09.340Z,19.30
2022-07-28T12:24:44.750Z,19.40
2022-07-28T12:27:14.910Z,19.50
2022-07-28T12:29:42.786Z,19.40
2022-07-28T12:32:10.487Z,19.30
2022-07-28T12:34:40.895Z,19.20
2022-07-28T12:37:10.028Z,18.90
2022-07-28T12:39:42.340Z,19.20
2022-07-28T12:42:11.663Z,19.60
2022-07-28T12:44:47.804Z,19.90
2022-07-28T12:47:29.528Z,19.90
2022-07-28T12:50:16.947Z,20.00
2022-07-28T12:53:02.824Z,20.00
2022-07-28T12:55:32.833Z,19.80
2022-07-28T12:58:00.110Z,19.70
2022-07-28T13:00:33.484Z,19.50
2022-07-28T13:03:19.213Z,19.50
2022-07-28T13:06:04.310Z,19.50
2022-07-28T13:08:44.733Z,19.80
2022-07-28T13:11:42.552Z,20.00
2022-07-28T13:14:02.665Z,20.00
2022-07-28T13:16:30.105Z,19.60
2022-07-28T13:19:00.849Z,19.50
2022-07-28T13:21:57.613Z,19.60
2022-07-28T13:24:29.009Z,19.50
2022-07-28T13:26:58.210Z,19.50
2022-07-28T13:29:26.370Z,19.20
2022-07-28T13:31:55.051Z,19.10
2022-07-28T13:34:22.538Z,18.90
2022-07-28T13:36:49.647Z,18.80
2022-07-28T13:39:16.692Z,18.80
2022-07-28T13:41:56.643Z,18.70
2022-07-28T13:44:27.266Z,18.60
2022-07-28T13:46:55.401Z,18.60
2022-07-28T13:49:22.980Z,18.70
2022-07-28T13:51:51.558Z,18.90
2022-07-28T13:54:20.107Z,18.80
2022-07-28T13:56:49.045Z,18.70
2022-07-28T13:59:16.725Z,18.50
2022-07-28T14:01:44.130Z,18.40
2022-07-28T14:04:17.789Z,18.40
2022-07-28T14:06:46.060Z,18.20
2022-07-28T14:09:17.991Z,18.10
2022-07-28T14:11:49.675Z,18.00
2022-07-28T14:14:23.881Z,17.90
2022-07-28T14:16:52.833Z,17.80
2022-07-28T14:19:23.420Z,18.00
2022-07-28T14:22:12.203Z,18.00
2022-07-28T14:24:41.483Z,17.90
2022-07-28T14:27:08.452Z,17.70
2022-07-28T14:29:37.703Z,17.70
2022-07-28T14:32:05.002Z,17.70
2022-07-28T14:34:31.956Z,17.60
2022-07-28T14:37:03.397Z,17.70
2022-07-28T14:39:34.141Z,17.60
2022-07-28T14:42:01.086Z,17.70
2022-07-28T14:44:28.046Z,17.80
2022-07-28T14:46:55.087Z,17.90
2022-07-28T14:49:22.143Z,18.00
2022-07-28T14:51:50.697Z,17.90
2022-07-28T14:54:18.092Z,17.60
2022-07-28T14:56:45.470Z,17.40
2022-07-28T14:59:12.653Z,17.20
2022-07-28T15:01:40.239Z,17.10
2022-07-28T15:04:07.335Z,17.00
2022-07-28T15:06:34.320Z,17.00
2022-07-28T15:09:02.154Z,16.90
2022-07-28T15:11:29.139Z,16.90
2022-07-28T15:13:56.219Z,17.00
2022-07-28T15:16:23.311Z,17.00
2022-07-28T15:18:52.550Z,17.10
2022-07-28T15:21:19.867Z,17.30
2022-07-28T15:23:46.836Z,17.50
2022-07-28T15:26:14.119Z,17.60
2022-07-28T15:28:41.136Z,17.80
2022-07-28T15:31:08.750Z,17.90
2022-07-28T15:33:48.337Z,17.90
2022-07-28T15:36:24.910Z,17.90
2022-07-28T15:38:52.844Z,17.80
2022-07-28T15:41:20.732Z,17.80
2022-07-28T15:43:47.752Z,17.80
2022-07-28T15:46:15.162Z,17.70
2022-07-28T15:48:44.179Z,17.70
2022-07-28T15:51:11.472Z,17.60
2022-07-28T15:53:38.941Z,17.60
2022-07-28T15:56:06.221Z,17.50
2022-07-28T15:58:33.555Z,17.50
2022-07-28T16:01:00.996Z,17.50
2022-07-28T16:03:29.743Z,17.50
2022-07-28T16:05:57.156Z,17.50
2022-07-28T16:08:24.173Z,17.50
2022-07-28T16:10:54.437Z,17.50
2022-07-28T16:13:31.226Z,17.50
2022-07-28T16:16:05.448Z,17.50
2022-07-28T16:18:32.437Z,17.40
2022-07-28T16:20:59.384Z,17.40
2022-07-28T16:23:26.563Z,17.40
2022-07-28T16:25:53.648Z,17.40
2022-07-28T16:28:21.163Z,17.40
2022-07-28T16:30:48.186Z,17.40
2022-07-28T16:33:15.271Z,17.40
2022-07-28T16:35:42.470Z,17.50
2022-07-28T16:38:09.508Z,17.60
2022-07-28T16:40:36.533Z,17.60
2022-07-28T16:43:06.097Z,17.50
2022-07-28T16:45:39.279Z,17.60
2022-07-28T16:48:06.797Z,17.50
2022-07-28T16:50:34.313Z,17.50
2022-07-28T16:53:04.303Z,17.60
2022-07-28T16:55:31.371Z,17.50
2022-07-28T16:57:58.388Z,17.60
2022-07-28T17:00:26.921Z,17.50
2022-07-28T17:02:53.939Z,17.50
2022-07-28T17:05:20.973Z,17.50
2022-07-28T17:07:48.116Z,17.40
2022-07-28T17:10:21.109Z,17.40
2022-07-28T17:12:53.404Z,17.40
2022-07-28T17:15:22.832Z,17.40
2022-07-28T17:17:51.848Z,17.50
2022-07-28T17:20:19.399Z,17.50
2022-07-28T17:22:46.461Z,17.40
2022-07-28T17:25:43.898Z,17.40
2022-07-28T17:28:03.603Z,17.40
2022-07-28T17:30:33.023Z,17.30
2022-07-28T17:33:06.254Z,17.30
2022-07-28T17:35:37.390Z,17.30
2022-07-28T17:38:07.072Z,17.20
2022-07-28T17:40:34.277Z,17.20
2022-07-28T17:43:01.681Z,17.20
2022-07-28T17:45:28.688Z,17.10
2022-07-28T17:47:55.667Z,17.10
2022-07-28T17:50:22.699Z,17.10
2022-07-28T17:52:49.650Z,17.10
2022-07-28T17:55:40.780Z,17.10
2022-07-28T17:58:27.803Z,17.00
2022-07-28T18:01:10.335Z,17.00
2022-07-28T18:03:57.770Z,17.00
2022-07-28T18:06:32.693Z,16.90
2022-07-28T18:09:06.587Z,16.90
2022-07-28T18:11:55.842Z,16.90
2022-07-28T18:14:26.647Z,16.80
2022-07-28T18:16:53.889Z,16.80
2022-07-28T18:19:21.079Z,16.80
2022-07-28T18:21:48.050Z,16.80
2022-07-28T18:24:15.245Z,16.70
2022-07-28T18:26:42.374Z,16.70
2022-07-28T18:29:09.318Z,16.60
2022-07-28T18:31:41.364Z,16.60
2022-07-28T18:34:13.019Z,16.60
2022-07-28T18:36:40.283Z,16.60
2022-07-28T18:39:07.292Z,16.50
2022-07-28T18:41:46.402Z,16.50
2022-07-28T18:44:19.381Z,16.50
2022-07-28T18:46:47.225Z,16.40
2022-07-28T18:49:16.071Z,16.40
2022-07-28T18:51:49.824Z,16.40
2022-07-28T18:54:27.612Z,16.30
2022-07-28T18:56:55.896Z,16.20
2022-07-28T18:59:23.103Z,16.30
2022-07-28T19:01:50.148Z,16.30
2022-07-28T19:04:17.476Z,16.30
2022-07-28T19:06:44.597Z,16.20
2022-07-28T19:09:11.592Z,16.20
2022-07-28T19:11:45.304Z,16.20
2022-07-28T19:14:14.069Z,16.10
2022-07-28T19:16:41.170Z,16.10
2022-07-28T19:19:08.193Z,16.10
2022-07-28T19:21:35.347Z,16.00
2022-07-28T19:24:02.745Z,16.00
2022-07-28T19:26:29.751Z,15.90
2022-07-28T19:28:56.795Z,15.90
2022-07-28T19:31:24.017Z,15.90
2022-07-28T19:33:51.886Z,15.80
2022-07-28T19:36:20.072Z,15.80
2022-07-28T19:38:47.333Z,15.80
2022-07-28T19:41:14.841Z,15.70
2022-07-28T19:43:42.256Z,15.80
2022-07-28T19:46:10.327Z,15.80
2022-07-28T19:48:37.803Z,15.80
2022-07-28T19:51:05.205Z,15.70
2022-07-28T19:53:35.755Z,15.70
2022-07-28T19:56:07.133Z,15.70
2022-07-28T19:58:36.526Z,15.70
2022-07-28T20:01:04.976Z,15.60
2022-07-28T20:04:01.614Z,15.60
2022-07-28T20:06:24.938Z,15.60
2022-07-28T20:08:52.817Z,15.70
2022-07-28T20:11:19.800Z,15.60
2022-07-28T20:13:48.123Z,15.60
2022-07-28T20:16:15.836Z,15.50
2022-07-28T20:18:43.054Z,15.50
2022-07-28T20:21:10.073Z,15.50
2022-07-28T20:23:38.686Z,15.40
2022-07-28T20:26:05.704Z,15.30
2022-07-28T20:28:32.711Z,15.30
2022-07-28T20:31:00.314Z,15.30
2022-07-28T20:33:27.400Z,15.30
2022-07-28T20:35:54.414Z,15.30
2022-07-28T20:38:23.419Z,15.20
2022-07-28T20:40:51.789Z,15.20
2022-07-28T20:43:18.770Z,15.20
2022-07-28T20:45:46.376Z,15.10
2022-07-28T20:48:14.638Z,15.10
2022-07-28T20:50:42.626Z,15.00
2022-07-28T20:53:10.578Z,15.00
2022-07-28T20:55:37.858Z,15.00
2022-07-28T20:58:06.112Z,14.90
2022-07-28T21:00:33.585Z,14.90
2022-07-28T21:03:00.618Z,14.90
2022-07-28T21:05:35.604Z,14.80
2022-07-28T21:08:06.064Z,14.90
2022-07-28T21:10:37.265Z,14.80
2022-07-28T21:13:04.652Z,14.80
2022-07-28T21:15:31.911Z,14.80
2022-07-28T21:17:59.287Z,14.80
2022-07-28T21:20:26.681Z,14.80
2022-07-28T21:22:53.742Z,14.70
2022-07-28T21:25:21.525Z,14.70
2022-07-28T21:28:06.987Z,14.70
2022-07-28T21:30:34.056Z,14.70
2022-07-28T21:33:01.276Z,14.70
2022-07-28T21:35:28.359Z,14.70
2022-07-28T21:37:55.422Z,14.70
2022-07-28T21:40:22.618Z,14.70
2022-07-28T21:42:49.610Z,14.60
2022-07-28T21:45:16.722Z,14.60
2022-07-28T21:47:43.872Z,14.70
2022-07-28T21:50:11.419Z,14.60
2022-07-28T21:52:38.697Z,14.70
2022-07-28T21:55:07.725Z,14.60
2022-07-28T21:57:35.061Z,14.60
2022-07-28T22:00:03.266Z,14.60
2022-07-28T22:02:30.253Z,14.60
2022-07-28T22:04:59.909Z,14.60
2022-07-28T22:07:26.953Z,14.70
2022-07-28T22:09:53.976Z,14.70
2022-07-28T22:12:21.415Z,14.70
2022-07-28T22:14:48.382Z,14.70
2022-07-28T22:17:15.365Z,14.70
2022-07-28T22:19:42.312Z,14.70
2022-07-28T22:22:09.274Z,14.70
2022-07-28T22:24:36.222Z,14.80
2022-07-28T22:27:03.436Z,14.80
2022-07-28T22:29:30.934Z,14.80
2022-07-28T22:31:59.506Z,14.80
2022-07-28T22:34:27.971Z,14.80
2022-07-28T22:36:55.089Z,14.80
2022-07-28T22:39:22.280Z,14.80
2022-07-28T22:41:49.389Z,14.80
2022-07-28T22:44:16.746Z,14.80
2022-07-28T22:46:44.299Z,14.80
2022-07-28T22:49:11.422Z,14.80
2022-07-28T22:51:38.469Z,14.70
2022-07-28T22:54:05.517Z,14.70
2022-07-28T22:56:34.729Z,14.80
2022-07-28T22:59:05.268Z,14.80
2022-07-28T23:01:32.541Z,14.80
2022-07-28T23:04:00.794Z,14.80
2022-07-28T23:06:28.044Z,14.80
2022-07-28T23:08:55.418Z,14.80
2022-07-28T23:11:22.467Z,14.80
2022-07-28T23:13:49.482Z,14.80
2022-07-28T23:16:17.391Z,14.70
2022-07-28T23:18:45.088Z,14.70
2022-07-28T23:21:12.872Z,14.70
2022-07-28T23:23:39.991Z,14.70
2022-07-28T23:26:07.130Z,14.70
2022-07-28T23:28:36.437Z,14.70
2022-07-28T23:31:06.322Z,14.70
2022-07-28T23:33:56.249Z,14.70
2022-07-28T23:36:26.638Z,14.70
2022-07-28T23:38:59.160Z,14.60
2022-07-28T23:41:27.226Z,14.70
2022-07-28T23:43:54.381Z,14.60
2022-07-28T23:46:21.802Z,14.60
2022-07-28T23:48:49.539Z,14.60
2022-07-28T23:51:16.623Z,14.60
2022-07-28T23:53:43.716Z,14.60
2022-07-28T23:56:10.813Z,14.60
2022-07-28T23:58:37.816Z,14.60
